createdAt,value
2018-06-20T00:00:24.187Z,99.90
2018-06-20T00:02:58.485Z,99.90
2018-06-20T00:05:32.892Z,99.90
2018-06-20T00:08:07.177Z,99.90
2018-06-20T00:10:41.531Z,99.90
2018-06-20T00:13:15.827Z,99.90
2018-06-20T00:15:50.290Z,99.90
2018-06-20T00:18:24.712Z,99.90
2018-06-20T00:20:58.949Z,99.90
2018-06-20T00:23:33.272Z,99.90
2018-06-20T00:26:07.696Z,99.90
2018-06-20T00:31:16.258Z,99.90
2018-06-20T00:33:50.696Z,99.90
2018-06-20T00:36:25.185Z,99.90
2018-06-20T00:41:33.624Z,99.90
2018-06-20T00:44:07.965Z,99.90
2018-06-20T00:46:42.372Z,99.90
2018-06-20T00:51:50.943Z,99.90
2018-06-20T00:56:59.863Z,99.90
2018-06-20T00:59:34.152Z,99.90
2018-06-20T01:02:08.432Z,99.90
2018-06-20T01:04:42.815Z,99.90
2018-06-20T01:07:17.203Z,99.90
2018-06-20T01:09:51.500Z,99.90
2018-06-20T01:12:25.954Z,99.90
2018-06-20T01:15:00.190Z,99.90
2018-06-20T01:17:34.593Z,99.90
2018-06-20T01:20:09.033Z,99.90
2018-06-20T01:22:43.355Z,99.90
2018-06-20T01:27:51.906Z,99.90
2018-06-20T01:30:26.183Z,99.90
2018-06-20T01:33:00.466Z,99.90
2018-06-20T01:35:34.793Z,99.90
2018-06-20T01:38:09.231Z,99.90
2018-06-20T01:40:43.583Z,99.90
2018-06-20T01:45:52.216Z,99.90
2018-06-20T01:48:26.578Z,99.90
2018-06-20T01:53:35.244Z,99.90
2018-06-20T01:56:09.672Z,99.90
2018-06-20T01:58:43.938Z,99.90
2018-06-20T02:01:18.305Z,99.90
2018-06-20T02:03:52.629Z,99.90
2018-06-20T02:06:27.054Z,99.90
2018-06-20T02:09:01.378Z,99.90
2018-06-20T02:11:35.751Z,99.90
2018-06-20T02:14:10.055Z,99.90
2018-06-20T02:16:44.399Z,99.90
2018-06-20T02:19:18.682Z,99.90
2018-06-20T02:21:53.155Z,99.90
2018-06-20T02:27:01.679Z,99.90
2018-06-20T02:29:35.935Z,99.90
2018-06-20T02:32:10.343Z,99.90
2018-06-20T02:34:44.944Z,99.90
2018-06-20T02:37:19.346Z,99.90
2018-06-20T02:39:53.711Z,99.90
2018-06-20T02:42:28.220Z,99.90
2018-06-20T02:45:02.638Z,99.90
2018-06-20T02:47:43.087Z,99.90
2018-06-20T02:50:17.434Z,99.90
2018-06-20T02:52:51.910Z,99.90
2018-06-20T02:55:26.073Z,99.90
2018-06-20T02:58:00.495Z,99.90
2018-06-20T03:00:34.903Z,99.90
2018-06-20T03:03:09.778Z,99.90
2018-06-20T03:05:44.118Z,99.90
2018-06-20T03:10:52.634Z,99.90
2018-06-20T03:13:27.075Z,99.90
2018-06-20T03:16:01.562Z,99.90
2018-06-20T03:18:36.005Z,99.90
2018-06-20T03:21:10.419Z,99.90
2018-06-20T03:23:44.753Z,99.90
2018-06-20T03:26:19.058Z,99.90
2018-06-20T03:28:53.487Z,99.90
2018-06-20T03:31:28.340Z,99.90
2018-06-20T03:34:02.850Z,99.90
2018-06-20T03:36:37.182Z,99.90
2018-06-20T03:39:11.692Z,99.90
2018-06-20T03:41:45.984Z,99.90
2018-06-20T03:44:20.364Z,99.90
2018-06-20T03:49:28.792Z,99.90
2018-06-20T03:52:03.182Z,99.90
2018-06-20T03:54:37.568Z,99.90
2018-06-20T03:57:11.960Z,99.90
2018-06-20T03:59:46.266Z,99.90
2018-06-20T04:02:20.655Z,99.90
2018-06-20T04:04:55.147Z,99.90
2018-06-20T04:07:29.456Z,99.90
2018-06-20T04:10:03.935Z,99.90
2018-06-20T04:12:38.500Z,99.90
2018-06-20T04:15:12.741Z,99.90
2018-06-20T04:17:47.066Z,99.90
2018-06-20T04:20:21.468Z,99.90
2018-06-20T04:22:55.809Z,99.90
2018-06-20T04:25:30.284Z,99.90
2018-06-20T04:28:04.624Z,99.90
2018-06-20T04:30:38.928Z,99.90
2018-06-20T04:33:13.225Z,99.90
2018-06-20T04:35:47.708Z,99.90
2018-06-20T04:38:22.029Z,99.90
2018-06-20T04:40:56.492Z,99.90
2018-06-20T04:43:30.797Z,99.90
2018-06-20T04:46:05.251Z,99.90
2018-06-20T04:48:39.631Z,99.90
2018-06-20T04:51:14.675Z,99.90
2018-06-20T04:53:48.920Z,99.90
2018-06-20T04:58:57.414Z,99.90
2018-06-20T05:01:31.899Z,99.90
2018-06-20T05:06:40.528Z,99.90
2018-06-20T05:09:18.027Z,99.90
2018-06-20T05:11:52.347Z,99.90
2018-06-20T05:14:26.644Z,99.90
2018-06-20T05:19:35.337Z,99.90
2018-06-20T05:22:09.671Z,99.90
2018-06-20T05:24:44.051Z,99.90
2018-06-20T05:27:18.432Z,99.90
2018-06-20T05:29:52.801Z,99.90
2018-06-20T05:32:27.100Z,99.90
2018-06-20T05:35:01.475Z,99.90
2018-06-20T05:37:35.806Z,99.90
2018-06-20T05:40:10.703Z,99.90
2018-06-20T05:42:45.136Z,99.90
2018-06-20T05:45:19.508Z,99.90
2018-06-20T05:47:53.905Z,99.90
2018-06-20T05:50:28.291Z,99.90
2018-06-20T05:53:02.644Z,99.90
2018-06-20T05:55:37.630Z,99.90
2018-06-20T05:58:12.112Z,99.90
2018-06-20T06:00:46.593Z,99.90
2018-06-20T06:03:20.966Z,99.90
2018-06-20T06:06:06.738Z,99.90
2018-06-20T06:08:41.456Z,99.90
2018-06-20T06:11:15.963Z,99.90
2018-06-20T06:16:24.562Z,99.90
2018-06-20T06:18:59.041Z,99.90
2018-06-20T06:21:33.578Z,99.90
2018-06-20T06:24:07.942Z,99.90
2018-06-20T06:26:42.334Z,99.90
2018-06-20T06:29:16.755Z,99.90
2018-06-20T06:31:51.137Z,99.90
2018-06-20T06:36:59.638Z,99.90
2018-06-20T06:42:08.070Z,99.90
2018-06-20T06:44:42.434Z,99.90
2018-06-20T06:47:16.689Z,99.90
2018-06-20T06:49:51.097Z,99.90
2018-06-20T06:52:25.571Z,99.90
2018-06-20T06:54:59.827Z,99.90
2018-06-20T06:57:34.124Z,99.90
2018-06-20T07:00:08.593Z,99.90
2018-06-20T07:02:43.039Z,99.90
2018-06-20T07:07:52.196Z,99.90
2018-06-20T07:10:26.511Z,99.90
2018-06-20T07:13:00.793Z,99.90
2018-06-20T07:15:35.258Z,99.90
2018-06-20T07:18:09.508Z,99.90
2018-06-20T07:20:43.896Z,99.90
2018-06-20T07:23:18.372Z,99.90
2018-06-20T07:25:52.827Z,99.90
2018-06-20T07:28:27.223Z,99.90
2018-06-20T07:31:01.551Z,99.90
2018-06-20T07:38:44.380Z,99.90
2018-06-20T07:41:18.706Z,99.90
2018-06-20T07:43:53.027Z,99.90
2018-06-20T07:46:27.476Z,99.90
2018-06-20T07:49:01.726Z,99.90
2018-06-20T07:56:44.746Z,99.90
2018-06-20T07:59:19.140Z,99.90
2018-06-20T08:02:10.303Z,99.90
2018-06-20T08:04:50.255Z,99.90
2018-06-20T08:07:30.034Z,99.90
2018-06-20T08:10:09.909Z,99.90
2018-06-20T08:12:49.694Z,99.90
2018-06-20T08:15:29.353Z,99.90
2018-06-20T08:18:09.111Z,99.90
2018-06-20T08:20:43.480Z,99.90
2018-06-20T08:23:17.736Z,99.90
2018-06-20T08:25:52.189Z,99.90
2018-06-20T08:28:26.440Z,99.90
2018-06-20T08:36:09.141Z,99.60
2018-06-20T08:41:17.787Z,98.50
2018-06-20T08:43:52.309Z,98.10
2018-06-20T08:46:26.596Z,97.80
2018-06-20T08:51:35.171Z,97.40
2018-06-20T08:54:09.701Z,96.60
2018-06-20T08:56:43.958Z,95.60
2018-06-20T08:59:18.221Z,96.10
2018-06-20T09:01:52.654Z,94.20
2018-06-20T09:04:32.462Z,95.50
2018-06-20T09:07:12.258Z,94.80
2018-06-20T09:09:51.844Z,94.60
2018-06-20T09:12:31.690Z,93.60
2018-06-20T09:15:11.531Z,94.30
2018-06-20T09:20:25.560Z,94.50
2018-06-20T09:25:33.951Z,92.30
2018-06-20T09:28:08.319Z,92.40
2018-06-20T09:30:42.774Z,92.90
2018-06-20T09:38:25.463Z,90.80
2018-06-20T09:43:33.787Z,91.90
2018-06-20T09:46:08.208Z,91.80
2018-06-20T09:48:42.510Z,91.90
2018-06-20T09:51:17.003Z,92.40
2018-06-20T09:53:51.337Z,91.40
2018-06-20T09:56:25.645Z,91.70
2018-06-20T09:59:05.609Z,91.10
2018-06-20T10:01:45.448Z,91.30
2018-06-20T10:04:24.955Z,92.20
2018-06-20T10:07:04.824Z,92.00
2018-06-20T10:09:44.641Z,91.10
2018-06-20T10:13:23.126Z,91.30
2018-06-20T10:15:57.447Z,90.10
2018-06-20T10:21:05.907Z,90.80
2018-06-20T10:28:48.853Z,91.20
2018-06-20T10:33:57.316Z,89.20
2018-06-20T10:36:31.808Z,89.30
2018-06-20T10:39:07.952Z,87.20
2018-06-20T10:41:42.214Z,91.50
2018-06-20T10:46:56.841Z,89.10
2018-06-20T10:49:31.214Z,88.60
2018-06-20T10:52:05.747Z,87.30
2018-06-20T10:54:40.141Z,87.40
2018-06-20T10:57:19.942Z,87.30
2018-06-20T11:02:39.940Z,86.80
2018-06-20T11:05:19.628Z,85.70
2018-06-20T11:07:59.355Z,86.00
2018-06-20T11:12:46.307Z,83.40
2018-06-20T11:20:34.326Z,83.90
2018-06-20T11:23:08.744Z,82.30
2018-06-20T11:25:43.079Z,82.20
2018-06-20T11:30:51.667Z,85.90
2018-06-20T11:33:26.208Z,84.70
2018-06-20T11:36:00.714Z,82.80
2018-06-20T11:38:35.117Z,78.70
2018-06-20T11:41:09.639Z,80.20
2018-06-20T11:46:23.553Z,79.50
2018-06-20T11:48:58.092Z,81.80
2018-06-20T11:51:32.570Z,81.40
2018-06-20T11:54:08.057Z,82.40
2018-06-20T11:56:42.424Z,81.90
2018-06-20T11:59:22.197Z,81.40
2018-06-20T12:02:01.827Z,79.00
2018-06-20T12:04:41.489Z,79.90
2018-06-20T12:07:21.138Z,75.70
2018-06-20T12:10:00.864Z,77.30
2018-06-20T12:12:40.567Z,75.70
2018-06-20T12:15:20.398Z,78.60
2018-06-20T12:18:00.227Z,78.90
2018-06-20T12:20:39.904Z,80.50
2018-06-20T12:25:59.588Z,76.00
2018-06-20T12:28:39.055Z,74.90
2018-06-20T12:31:18.864Z,74.70
2018-06-20T12:33:58.501Z,71.50
2018-06-20T12:36:38.244Z,75.20
2018-06-20T12:39:11.840Z,75.70
2018-06-20T12:41:51.583Z,71.30
2018-06-20T12:44:30.111Z,75.40
2018-06-20T12:47:09.414Z,70.70
2018-06-20T12:49:50.869Z,72.80
2018-06-20T12:52:25.331Z,73.00
2018-06-20T12:54:59.734Z,72.80
2018-06-20T12:57:34.128Z,73.80
2018-06-20T13:00:08.627Z,73.90
2018-06-20T13:07:51.991Z,71.10
2018-06-20T13:10:26.426Z,72.30
2018-06-20T13:15:34.946Z,69.40
2018-06-20T13:18:09.297Z,68.90
2018-06-20T13:20:43.812Z,70.00
2018-06-20T13:23:18.212Z,69.10
2018-06-20T13:25:52.626Z,68.30
2018-06-20T13:28:27.074Z,71.30
2018-06-20T13:32:04.473Z,76.00
2018-06-20T13:34:44.076Z,70.30
2018-06-20T13:37:23.808Z,66.70
2018-06-20T13:40:03.402Z,68.60
2018-06-20T13:42:43.028Z,69.10
2018-06-20T13:45:22.779Z,68.40
2018-06-20T13:48:02.296Z,66.00
2018-06-20T13:50:36.676Z,65.90
2018-06-20T13:55:45.074Z,68.60
2018-06-20T14:06:01.928Z,66.00
2018-06-20T14:08:36.340Z,64.30
2018-06-20T14:11:10.871Z,65.60
2018-06-20T14:13:45.172Z,65.70
2018-06-20T14:16:19.623Z,64.40
2018-06-20T14:18:53.886Z,63.90
2018-06-20T14:21:33.556Z,63.20
2018-06-20T14:24:09.035Z,63.70
2018-06-20T14:26:43.579Z,65.50
2018-06-20T14:29:17.834Z,63.60
2018-06-20T14:31:57.706Z,64.40
2018-06-20T14:34:37.345Z,62.90
2018-06-20T14:37:17.075Z,62.50
2018-06-20T14:39:56.884Z,64.30
2018-06-20T14:45:16.308Z,62.80
2018-06-20T14:47:50.633Z,60.30
2018-06-20T14:50:25.177Z,59.80
2018-06-20T14:55:33.588Z,59.20
2018-06-20T14:58:07.937Z,60.50
2018-06-20T15:00:42.242Z,60.00
2018-06-20T15:03:16.728Z,58.30
2018-06-20T15:05:51.127Z,59.60
2018-06-20T15:08:25.403Z,59.90
2018-06-20T15:10:59.785Z,58.70
2018-06-20T15:16:13.855Z,56.30
2018-06-20T15:18:48.182Z,57.10
2018-06-20T15:21:22.553Z,59.10
2018-06-20T15:23:56.853Z,58.40
2018-06-20T15:26:36.817Z,58.00
2018-06-20T15:29:16.704Z,57.50
2018-06-20T15:31:56.601Z,58.20
2018-06-20T15:37:16.007Z,56.00
2018-06-20T15:39:50.443Z,54.50
2018-06-20T15:42:24.882Z,55.00
2018-06-20T15:44:59.301Z,55.60
2018-06-20T15:47:33.811Z,56.30
2018-06-20T15:55:16.695Z,56.10
2018-06-20T16:00:25.259Z,56.00
2018-06-20T16:02:59.687Z,56.40
2018-06-20T16:05:34.061Z,56.20
2018-06-20T16:10:42.479Z,54.80
2018-06-20T16:13:16.732Z,54.20
2018-06-20T16:15:51.284Z,54.00
2018-06-20T16:23:45.081Z,50.70
2018-06-20T16:26:24.938Z,49.20
2018-06-20T16:29:04.680Z,46.80
2018-06-20T16:34:13.777Z,47.80
2018-06-20T16:39:22.705Z,46.60
2018-06-20T16:41:57.135Z,45.20
2018-06-20T16:44:31.777Z,45.30
2018-06-20T16:47:06.195Z,43.20
2018-06-20T16:54:48.905Z,43.10
2018-06-20T16:57:23.250Z,41.80
2018-06-20T16:59:57.545Z,41.80
2018-06-20T17:02:34.872Z,41.00
2018-06-20T17:05:09.592Z,42.00
2018-06-20T17:07:43.901Z,41.20
2018-06-20T17:10:20.674Z,40.40
2018-06-20T17:13:00.584Z,40.70
2018-06-20T17:15:40.337Z,39.60
2018-06-20T17:18:20.171Z,39.40
2018-06-20T17:21:00.008Z,39.40
2018-06-20T17:23:39.962Z,39.30
2018-06-20T17:26:14.344Z,40.20
2018-06-20T17:28:48.674Z,38.40
2018-06-20T17:31:23.028Z,37.30
2018-06-20T17:33:57.383Z,37.70
2018-06-20T17:36:31.909Z,36.60
2018-06-20T17:39:07.664Z,36.10
2018-06-20T17:41:42.070Z,36.60
2018-06-20T17:46:50.483Z,36.00
2018-06-20T17:49:24.911Z,36.90
2018-06-20T17:54:33.581Z,37.40
2018-06-20T17:57:07.980Z,36.90
2018-06-20T17:59:42.333Z,37.40
2018-06-20T18:02:16.691Z,39.60
2018-06-20T18:04:56.471Z,41.00
2018-06-20T18:07:36.263Z,42.10
2018-06-20T18:10:16.099Z,44.30
2018-06-20T18:15:33.764Z,46.50
2018-06-20T18:18:08.084Z,47.60
2018-06-20T18:20:42.576Z,48.90
2018-06-20T18:23:16.895Z,49.30
2018-06-20T18:25:51.216Z,49.70
2018-06-20T18:28:25.553Z,49.60
2018-06-20T18:30:59.874Z,50.70
2018-06-20T18:33:34.318Z,51.20
2018-06-20T18:38:42.747Z,52.60
2018-06-20T18:41:17.139Z,52.30
2018-06-20T18:43:51.542Z,53.50
2018-06-20T18:49:00.081Z,53.80
2018-06-20T18:56:42.922Z,54.90
2018-06-20T18:59:22.599Z,55.40
2018-06-20T19:02:02.241Z,55.50
2018-06-20T19:04:42.057Z,55.90
2018-06-20T19:08:22.624Z,56.70
2018-06-20T19:10:57.023Z,57.30
2018-06-20T19:13:31.464Z,57.90
2018-06-20T19:18:39.845Z,58.80
2018-06-20T19:21:14.165Z,59.10
2018-06-20T19:23:48.580Z,59.60
2018-06-20T19:26:23.090Z,59.90
2018-06-20T19:28:57.340Z,60.40
2018-06-20T19:31:31.674Z,61.50
2018-06-20T19:34:06.122Z,63.20
2018-06-20T19:39:20.165Z,65.90
2018-06-20T19:44:33.071Z,67.80
2018-06-20T19:52:15.826Z,70.00
2018-06-20T19:57:24.200Z,72.60
2018-06-20T20:02:32.900Z,75.50
2018-06-20T20:07:41.501Z,76.20
2018-06-20T20:12:50.022Z,76.90
2018-06-20T20:15:24.315Z,79.00
2018-06-20T20:20:32.665Z,80.90
2018-06-20T20:23:07.138Z,82.00
2018-06-20T20:25:41.483Z,82.90
2018-06-20T20:30:49.932Z,84.30
2018-06-20T20:33:24.302Z,85.00
2018-06-20T20:35:58.591Z,85.50
2018-06-20T20:38:32.861Z,86.60
2018-06-20T20:41:07.205Z,87.50
2018-06-20T20:43:41.542Z,89.20
2018-06-20T20:46:16.154Z,89.50
2018-06-20T20:48:50.471Z,90.40
2018-06-20T20:53:59.000Z,90.70
2018-06-20T20:56:33.438Z,90.70
2018-06-20T20:59:07.845Z,90.90
2018-06-20T21:01:42.208Z,91.60
2018-06-20T21:06:50.825Z,92.80
2018-06-20T21:09:25.141Z,93.10
2018-06-20T21:11:59.386Z,93.30
2018-06-20T21:14:33.750Z,93.50
2018-06-20T21:17:08.081Z,93.70
2018-06-20T21:22:16.448Z,93.90
2018-06-20T21:24:50.758Z,94.60
2018-06-20T21:27:25.146Z,95.30
2018-06-20T21:29:59.521Z,95.90
2018-06-20T21:32:34.011Z,97.70
2018-06-20T21:37:42.410Z,97.80
2018-06-20T21:40:16.858Z,98.10
2018-06-20T21:47:59.661Z,98.60
2018-06-20T21:50:33.963Z,98.30
2018-06-20T21:55:42.727Z,98.60
2018-06-20T21:58:16.998Z,99.10
2018-06-20T22:00:51.301Z,99.40
2018-06-20T22:03:26.527Z,99.40
2018-06-20T22:06:00.894Z,99.60
2018-06-20T22:08:35.359Z,99.70
2018-06-20T22:13:43.826Z,99.70
2018-06-20T22:16:18.250Z,99.90
2018-06-20T22:21:26.812Z,99.90
2018-06-20T22:24:01.102Z,99.90
2018-06-20T22:26:35.540Z,99.90
2018-06-20T22:29:09.834Z,99.90
2018-06-20T22:31:44.356Z,99.90
2018-06-20T22:34:18.659Z,99.90
2018-06-20T22:39:27.124Z,99.90
2018-06-20T22:44:35.664Z,99.90
2018-06-20T22:49:44.158Z,99.90
2018-06-20T22:54:52.854Z,99.90
2018-06-20T22:57:27.238Z,99.90
2018-06-20T23:00:01.717Z,99.90
2018-06-20T23:02:36.131Z,99.90
2018-06-20T23:05:10.544Z,99.90
2018-06-20T23:07:44.755Z,99.90
2018-06-20T23:10:19.104Z,99.90
2018-06-20T23:12:53.407Z,99.90
2018-06-20T23:15:28.012Z,99.90
2018-06-20T23:20:36.687Z,99.90
2018-06-20T23:28:19.514Z,99.90
2018-06-20T23:30:53.782Z,99.90
2018-06-20T23:33:28.158Z,99.90
2018-06-20T23:36:02.440Z,99.90
2018-06-20T23:38:36.784Z,99.90
2018-06-20T23:41:11.077Z,99.90
2018-06-20T23:43:45.359Z,99.90
2018-06-20T23:46:19.716Z,99.90
2018-06-20T23:48:54.221Z,99.90
2018-06-20T23:51:28.799Z,99.90
2018-06-20T23:54:03.053Z,99.90
2018-06-20T23:56:37.499Z,99.90
2018-06-20T23:59:11.883Z,99.90
